sensor_id;sensor_type;location;lat;lon;timestamp;pressure;altitude;pressure_sealevel;temperature;humidity
46722;BME280;32455;43.430;23.136;2023-03-16T00:01:54;97270.03;;;5.80;100.00
46722;BME280;32455;43.430;23.136;2023-03-16T00:04:39;97298.06;;;5.89;100.00
46722;BME280;32455;43.430;23.136;2023-03-16T00:07:24;97292.19;;;5.81;100.00
46722;BME280;32455;43.430;23.136;2023-03-16T00:10:13;97285.69;;;5.70;100.00
46722;BME280;32455;43.430;23.136;2023-03-16T00:12:58;97284.44;;;5.72;100.00
46722;BME280;32455;43.430;23.136;2023-03-16T00:15:56;97303.88;;;5.80;100.00
46722;BME280;32455;43.430;23.136;2023-03-16T00:18:42;97293.31;;;5.60;100.00
46722;BME280;32455;43.430;23.136;2023-03-16T00:21:28;97308.47;;;5.59;100.00
46722;BME280;32455;43.430;23.136;2023-03-16T00:24:20;97296.25;;;5.45;100.00
46722;BME280;32455;43.430;23.136;2023-03-16T00:27:12;97288.78;;;5.67;100.00
46722;BME280;32455;43.430;23.136;2023-03-16T00:30:01;97307.81;;;5.70;100.00
46722;BME280;32455;43.430;23.136;2023-03-16T00:32:47;97309.06;;;5.68;100.00
46722;BME280;32455;43.430;23.136;2023-03-16T00:35:32;97316.16;;;5.87;100.00
46722;BME280;32455;43.430;23.136;2023-03-16T00:38:19;97301.28;;;5.66;100.00
46722;BME280;32455;43.430;23.136;2023-03-16T00:41:06;97298.06;;;5.58;100.00
46722;BME280;32455;43.430;23.136;2023-03-16T00:43:53;97308.38;;;5.41;100.00
46722;BME280;32455;43.430;23.136;2023-03-16T00:46:38;97320.75;;;5.67;100.00
46722;BME280;32455;43.430;23.136;2023-03-16T00:49:23;97316.41;;;5.79;100.00
46722;BME280;32455;43.430;23.136;2023-03-16T00:52:10;97334.72;;;6.07;100.00
46722;BME280;32455;43.430;23.136;2023-03-16T00:54:59;97332.41;;;6.17;100.00
46722;BME280;32455;43.430;23.136;2023-03-16T00:57:48;97334.47;;;5.70;100.00
46722;BME280;32455;43.430;23.136;2023-03-16T01:00:34;97343.59;;;5.49;100.00
46722;BME280;32455;43.430;23.136;2023-03-16T01:03:20;97339.47;;;5.47;100.00
46722;BME280;32455;43.430;23.136;2023-03-16T01:06:07;97349.31;;;5.53;100.00
46722;BME280;32455;43.430;23.136;2023-03-16T01:08:53;97341.50;;;5.58;100.00
46722;BME280;32455;43.430;23.136;2023-03-16T01:11:39;97352.22;;;5.45;100.00
46722;BME280;32455;43.430;23.136;2023-03-16T01:14:27;97354.88;;;5.38;100.00
46722;BME280;32455;43.430;23.136;2023-03-16T01:17:14;97356.28;;;5.47;100.00
46722;BME280;32455;43.430;23.136;2023-03-16T01:20:01;97351.94;;;5.60;100.00
46722;BME280;32455;43.430;23.136;2023-03-16T01:22:52;97335.53;;;5.56;100.00
46722;BME280;32455;43.430;23.136;2023-03-16T01:25:37;97342.31;;;5.65;100.00
46722;BME280;32455;43.430;23.136;2023-03-16T01:28:24;97347.69;;;5.39;100.00
46722;BME280;32455;43.430;23.136;2023-03-16T01:31:11;97360.25;;;5.32;100.00
46722;BME280;32455;43.430;23.136;2023-03-16T01:33:58;97350.03;;;5.15;100.00
46722;BME280;32455;43.430;23.136;2023-03-16T01:36:49;97347.69;;;5.39;100.00
46722;BME280;32455;43.430;23.136;2023-03-16T01:39:34;97358.41;;;5.25;100.00
46722;BME280;32455;43.430;23.136;2023-03-16T01:42:19;97355.53;;;5.27;100.00
46722;BME280;32455;43.430;23.136;2023-03-16T01:45:05;97363.34;;;5.15;100.00
46722;BME280;32455;43.430;23.136;2023-03-16T01:47:51;97372.56;;;5.19;100.00
46722;BME280;32455;43.430;23.136;2023-03-16T01:50:36;97351.25;;;5.19;100.00
46722;BME280;32455;43.430;23.136;2023-03-16T01:53:22;97370.88;;;5.38;100.00
46722;BME280;32455;43.430;23.136;2023-03-16T01:56:10;97365.56;;;5.25;100.00
46722;BME280;32455;43.430;23.136;2023-03-16T01:58:58;97374.81;;;5.22;100.00
46722;BME280;32455;43.430;23.136;2023-03-16T02:01:46;97382.38;;;5.25;100.00
46722;BME280;32455;43.430;23.136;2023-03-16T02:07:27;97386.50;;;5.15;100.00
46722;BME280;32455;43.430;23.136;2023-03-16T02:10:18;97380.34;;;5.08;100.00
46722;BME280;32455;43.430;23.136;2023-03-16T02:13:03;97395.94;;;4.97;100.00
46722;BME280;32455;43.430;23.136;2023-03-16T02:15:50;97391.22;;;4.80;100.00
46722;BME280;32455;43.430;23.136;2023-03-16T02:18:36;97404.53;;;4.80;100.00
46722;BME280;32455;43.430;23.136;2023-03-16T02:24:19;97399.22;;;4.86;100.00
46722;BME280;32455;43.430;23.136;2023-03-16T02:27:08;97406.97;;;4.88;100.00
46722;BME280;32455;43.430;23.136;2023-03-16T02:32:49;97400.22;;;4.78;100.00
46722;BME280;32455;43.430;23.136;2023-03-16T02:35:36;97407.00;;;4.81;100.00
46722;BME280;32455;43.430;23.136;2023-03-16T02:38:23;97416.19;;;4.92;100.00
46722;BME280;32455;43.430;23.136;2023-03-16T02:41:15;97419.06;;;4.90;100.00
46722;BME280;32455;43.430;23.136;2023-03-16T02:44:06;97429.50;;;4.92;100.00
46722;BME280;32455;43.430;23.136;2023-03-16T02:46:57;97427.28;;;4.89;100.00
46722;BME280;32455;43.430;23.136;2023-03-16T02:49:45;97429.50;;;4.92;100.00
46722;BME280;32455;43.430;23.136;2023-03-16T02:52:34;97414.97;;;4.61;100.00
46722;BME280;32455;43.430;23.136;2023-03-16T02:55:20;97437.50;;;4.78;100.00
46722;BME280;32455;43.430;23.136;2023-03-16T02:58:05;97434.38;;;4.42;100.00
46722;BME280;32455;43.430;23.136;2023-03-16T03:00:51;97442.56;;;4.47;100.00
46722;BME280;32455;43.430;23.136;2023-03-16T03:03:38;97451.56;;;4.39;100.00
46722;BME280;32455;43.430;23.136;2023-03-16T03:06:24;97439.50;;;4.43;100.00
46722;BME280;32455;43.430;23.136;2023-03-16T03:09:09;97452.41;;;4.53;100.00
46722;BME280;32455;43.430;23.136;2023-03-16T03:11:57;97453.22;;;4.53;100.00
46722;BME280;32455;43.430;23.136;2023-03-16T03:14:42;97458.34;;;4.62;100.00
46722;BME280;32455;43.430;23.136;2023-03-16T03:17:27;97456.03;;;4.25;100.00
46722;BME280;32455;43.430;23.136;2023-03-16T03:20:14;97462.75;;;4.21;100.00
46722;BME280;32455;43.430;23.136;2023-03-16T03:23:02;97472.00;;;4.39;100.00
46722;BME280;32455;43.430;23.136;2023-03-16T03:25:48;97465.69;;;4.53;100.00
46722;BME280;32455;43.430;23.136;2023-03-16T03:28:34;97483.50;;;4.52;100.00
46722;BME280;32455;43.430;23.136;2023-03-16T03:31:21;97488.63;;;4.47;100.00
46722;BME280;32455;43.430;23.136;2023-03-16T03:34:06;97472.66;;;4.47;100.00
46722;BME280;32455;43.430;23.136;2023-03-16T03:36:52;97481.41;;;4.35;100.00
46722;BME280;32455;43.430;23.136;2023-03-16T03:39:38;97480.25;;;4.50;100.00
46722;BME280;32455;43.430;23.136;2023-03-16T03:42:24;97488.66;;;4.54;100.00
46722;BME280;32455;43.430;23.136;2023-03-16T03:45:11;97488.09;;;4.17;100.00
46722;BME280;32455;43.430;23.136;2023-03-16T03:47:56;97508.88;;;4.42;100.00
46722;BME280;32455;43.430;23.136;2023-03-16T03:50:41;97497.44;;;4.55;100.00
46722;BME280;32455;43.430;23.136;2023-03-16T03:53:27;97508.25;;;4.53;100.00
46722;BME280;32455;43.430;23.136;2023-03-16T03:56:13;97504.78;;;4.46;100.00
46722;BME280;32455;43.430;23.136;2023-03-16T03:58:58;97523.22;;;4.61;100.00
46722;BME280;32455;43.430;23.136;2023-03-16T04:01:43;97516.47;;;4.51;100.00
46722;BME280;32455;43.430;23.136;2023-03-16T04:04:29;97519.72;;;4.53;100.00
46722;BME280;32455;43.430;23.136;2023-03-16T04:07:15;97511.69;;;4.34;100.00
46722;BME280;32455;43.430;23.136;2023-03-16T04:10:00;97517.56;;;4.22;100.00
46722;BME280;32455;43.430;23.136;2023-03-16T04:12:45;97522.72;;;4.24;100.00
46722;BME280;32455;43.430;23.136;2023-03-16T04:15:31;97538.78;;;4.57;100.00
46722;BME280;32455;43.430;23.136;2023-03-16T04:18:17;97540.91;;;4.88;100.00
46722;BME280;32455;43.430;23.136;2023-03-16T04:21:04;97537.59;;;4.73;99.81
46722;BME280;32455;43.430;23.136;2023-03-16T04:23:50;97547.22;;;4.67;99.90
46722;BME280;32455;43.430;23.136;2023-03-16T04:26:38;97555.44;;;4.24;96.03
46722;BME280;32455;43.430;23.136;2023-03-16T04:29:23;97567.81;;;4.45;98.07
46722;BME280;32455;43.430;23.136;2023-03-16T04:32:09;97560.59;;;4.33;96.56
46722;BME280;32455;43.430;23.136;2023-03-16T04:34:55;97580.31;;;4.58;97.62
46722;BME280;32455;43.430;23.136;2023-03-16T04:37:41;97576.84;;;4.51;97.97
46722;BME280;32455;43.430;23.136;2023-03-16T04:40:26;97575.59;;;4.53;100.00
46722;BME280;32455;43.430;23.136;2023-03-16T04:43:12;97570.69;;;4.50;100.00
46722;BME280;32455;43.430;23.136;2023-03-16T04:45:57;97568.84;;;4.51;100.00
46722;BME280;32455;43.430;23.136;2023-03-16T04:48:43;97590.00;;;4.72;100.00
46722;BME280;32455;43.430;23.136;2023-03-16T04:51:28;97590.34;;;4.56;100.00
46722;BME280;32455;43.430;23.136;2023-03-16T04:54:14;97591.22;;;4.63;96.54
46722;BME280;32455;43.430;23.136;2023-03-16T04:56:59;97599.53;;;4.53;97.31
46722;BME280;32455;43.430;23.136;2023-03-16T04:59:44;97598.97;;;4.65;98.91
46722;BME280;32455;43.430;23.136;2023-03-16T05:02:28;97585.28;;;4.68;100.00
46722;BME280;32455;43.430;23.136;2023-03-16T05:05:14;97598.00;;;4.79;95.66
46722;BME280;32455;43.430;23.136;2023-03-16T05:07:59;97618.44;;;4.65;92.55
46722;BME280;32455;43.430;23.136;2023-03-16T05:10:45;97614.56;;;4.74;95.47
46722;BME280;32455;43.430;23.136;2023-03-16T05:13:32;97612.72;;;4.75;97.27
46722;BME280;32455;43.430;23.136;2023-03-16T05:16:17;97614.38;;;4.76;99.91
46722;BME280;32455;43.430;23.136;2023-03-16T05:19:03;97613.53;;;4.69;97.90
46722;BME280;32455;43.430;23.136;2023-03-16T05:21:48;97613.50;;;4.62;98.98
46722;BME280;32455;43.430;23.136;2023-03-16T05:24:34;97618.16;;;4.47;100.00
46722;BME280;32455;43.430;23.136;2023-03-16T05:27:22;97612.25;;;4.58;97.54
46722;BME280;32455;43.430;23.136;2023-03-16T05:30:09;97622.56;;;4.74;97.26
46722;BME280;32455;43.430;23.136;2023-03-16T05:32:55;97617.28;;;4.40;92.01
46722;BME280;32455;43.430;23.136;2023-03-16T05:35:41;97638.19;;;4.43;94.49
46722;BME280;32455;43.430;23.136;2023-03-16T05:38:28;97637.53;;;4.41;93.95
46722;BME280;32455;43.430;23.136;2023-03-16T05:41:15;97645.06;;;4.31;93.45
46722;BME280;32455;43.430;23.136;2023-03-16T05:44:02;97628.81;;;4.19;93.18
46722;BME280;32455;43.430;23.136;2023-03-16T05:46:48;97635.88;;;4.33;93.24
46722;BME280;32455;43.430;23.136;2023-03-16T05:49:33;97646.28;;;4.69;93.66
46722;BME280;32455;43.430;23.136;2023-03-16T05:52:19;97650.75;;;4.62;91.90
46722;BME280;32455;43.430;23.136;2023-03-16T05:55:05;97651.72;;;4.48;93.13
46722;BME280;32455;43.430;23.136;2023-03-16T05:57:51;97666.34;;;4.31;90.62
46722;BME280;32455;43.430;23.136;2023-03-16T06:00:36;97658.34;;;4.31;92.84
46722;BME280;32455;43.430;23.136;2023-03-16T06:03:23;97659.31;;;4.51;90.75
46722;BME280;32455;43.430;23.136;2023-03-16T06:06:09;97656.66;;;4.58;91.75
46722;BME280;32455;43.430;23.136;2023-03-16T06:08:54;97671.97;;;4.49;91.72
46722;BME280;32455;43.430;23.136;2023-03-16T06:11:40;97675.19;;;4.38;91.53
46722;BME280;32455;43.430;23.136;2023-03-16T06:14:25;97673.53;;;4.37;92.52
46722;BME280;32455;43.430;23.136;2023-03-16T06:17:11;97675.66;;;4.48;93.23
46722;BME280;32455;43.430;23.136;2023-03-16T06:19:56;97673.22;;;4.53;89.45
46722;BME280;32455;43.430;23.136;2023-03-16T06:22:42;97683.41;;;4.49;91.02
46722;BME280;32455;43.430;23.136;2023-03-16T06:25:28;97689.97;;;4.47;90.58
46722;BME280;32455;43.430;23.136;2023-03-16T06:28:13;97674.22;;;4.45;88.76
46722;BME280;32455;43.430;23.136;2023-03-16T06:30:59;97698.09;;;4.39;91.54
46722;BME280;32455;43.430;23.136;2023-03-16T06:33:45;97701.72;;;4.31;87.97
46722;BME280;32455;43.430;23.136;2023-03-16T06:36:30;97703.44;;;4.39;92.75
46722;BME280;32455;43.430;23.136;2023-03-16T06:39:16;97710.88;;;4.50;90.44
46722;BME280;32455;43.430;23.136;2023-03-16T06:42:01;97696.78;;;4.28;90.02
46722;BME280;32455;43.430;23.136;2023-03-16T06:44:48;97711.56;;;4.31;91.66
46722;BME280;32455;43.430;23.136;2023-03-16T06:47:34;97714.16;;;4.52;90.14
46722;BME280;32455;43.430;23.136;2023-03-16T06:50:19;97734.38;;;4.46;88.42
46722;BME280;32455;43.430;23.136;2023-03-16T06:53:05;97734.09;;;4.35;87.36
46722;BME280;32455;43.430;23.136;2023-03-16T06:55:50;97721.00;;;4.33;88.34
46722;BME280;32455;43.430;23.136;2023-03-16T06:58:36;97724.91;;;4.37;89.63
46722;BME280;32455;43.430;23.136;2023-03-16T07:01:21;97740.53;;;4.53;90.91
46722;BME280;32455;43.430;23.136;2023-03-16T07:04:07;97740.66;;;4.39;89.71
46722;BME280;32455;43.430;23.136;2023-03-16T07:06:53;97726.78;;;4.43;89.00
46722;BME280;32455;43.430;23.136;2023-03-16T07:09:38;97755.38;;;4.35;88.12
46722;BME280;32455;43.430;23.136;2023-03-16T07:12:24;97748.25;;;4.42;90.38
46722;BME280;32455;43.430;23.136;2023-03-16T07:15:10;97758.50;;;4.45;88.39
46722;BME280;32455;43.430;23.136;2023-03-16T07:17:55;97767.09;;;4.75;88.20
46722;BME280;32455;43.430;23.136;2023-03-16T07:20:41;97757.69;;;4.79;89.63
46722;BME280;32455;43.430;23.136;2023-03-16T07:23:26;97773.06;;;4.77;86.29
46722;BME280;32455;43.430;23.136;2023-03-16T07:26:12;97782.06;;;4.76;84.18
46722;BME280;32455;43.430;23.136;2023-03-16T07:28:58;97785.06;;;4.66;85.04
46722;BME280;32455;43.430;23.136;2023-03-16T07:31:43;97779.19;;;4.77;86.04
46722;BME280;32455;43.430;23.136;2023-03-16T07:34:28;97786.81;;;4.87;85.27
46722;BME280;32455;43.430;23.136;2023-03-16T07:37:13;97772.31;;;4.55;84.43
46722;BME280;32455;43.430;23.136;2023-03-16T07:40:00;97787.56;;;4.74;86.96
46722;BME280;32455;43.430;23.136;2023-03-16T07:42:45;97796.41;;;4.53;86.33
46722;BME280;32455;43.430;23.136;2023-03-16T07:45:30;97809.94;;;4.80;86.02
46722;BME280;32455;43.430;23.136;2023-03-16T07:48:16;97790.41;;;4.45;84.99
46722;BME280;32455;43.430;23.136;2023-03-16T07:51:02;97807.34;;;4.65;84.09
46722;BME280;32455;43.430;23.136;2023-03-16T07:53:47;97800.44;;;4.71;84.44
46722;BME280;32455;43.430;23.136;2023-03-16T07:56:32;97801.91;;;4.45;84.49
46722;BME280;32455;43.430;23.136;2023-03-16T07:59:17;97824.28;;;4.58;85.69
46722;BME280;32455;43.430;23.136;2023-03-16T08:02:04;97819.06;;;4.71;82.90
46722;BME280;32455;43.430;23.136;2023-03-16T08:04:50;97808.41;;;4.71;85.81
46722;BME280;32455;43.430;23.136;2023-03-16T08:07:35;97813.34;;;5.02;86.57
46722;BME280;32455;43.430;23.136;2023-03-16T08:10:22;97818.00;;;4.93;84.60
46722;BME280;32455;43.430;23.136;2023-03-16T08:13:07;97810.75;;;4.81;83.42
46722;BME280;32455;43.430;23.136;2023-03-16T08:15:53;97825.34;;;4.91;85.34
46722;BME280;32455;43.430;23.136;2023-03-16T08:18:46;97826.38;;;4.90;83.72
46722;BME280;32455;43.430;23.136;2023-03-16T08:21:33;97834.88;;;5.07;83.54
46722;BME280;32455;43.430;23.136;2023-03-16T08:24:19;97834.50;;;5.10;84.86
46722;BME280;32455;43.430;23.136;2023-03-16T08:27:04;97838.00;;;5.59;85.09
46722;BME280;32455;43.430;23.136;2023-03-16T08:29:51;97834.91;;;5.14;83.23
46722;BME280;32455;43.430;23.136;2023-03-16T08:32:37;97852.41;;;5.30;85.22
46722;BME280;32455;43.430;23.136;2023-03-16T08:35:26;97860.38;;;5.23;83.28
46722;BME280;32455;43.430;23.136;2023-03-16T08:38:13;97858.16;;;5.74;84.16
46722;BME280;32455;43.430;23.136;2023-03-16T08:41:00;97849.34;;;5.81;83.96
46722;BME280;32455;43.430;23.136;2023-03-16T08:43:46;97848.81;;;5.98;84.18
46722;BME280;32455;43.430;23.136;2023-03-16T08:46:31;97865.09;;;5.69;82.36
46722;BME280;32455;43.430;23.136;2023-03-16T08:49:18;97871.41;;;5.96;82.53
46722;BME280;32455;43.430;23.136;2023-03-16T08:52:04;97851.09;;;5.53;80.80
46722;BME280;32455;43.430;23.136;2023-03-16T08:54:50;97873.25;;;6.02;83.36
46722;BME280;32455;43.430;23.136;2023-03-16T08:57:36;97870.44;;;6.23;82.83
46722;BME280;32455;43.430;23.136;2023-03-16T09:00:23;97878.09;;;5.85;81.33
46722;BME280;32455;43.430;23.136;2023-03-16T09:03:09;97881.50;;;6.14;80.41
46722;BME280;32455;43.430;23.136;2023-03-16T09:06:03;97875.38;;;6.33;81.59
46722;BME280;32455;43.430;23.136;2023-03-16T09:08:49;97881.31;;;6.22;78.33
46722;BME280;32455;43.430;23.136;2023-03-16T09:11:34;97874.16;;;6.36;80.53
46722;BME280;32455;43.430;23.136;2023-03-16T09:14:19;97861.22;;;6.39;75.86
46722;BME280;32455;43.430;23.136;2023-03-16T09:17:05;97876.84;;;6.49;79.63
46722;BME280;32455;43.430;23.136;2023-03-16T09:19:55;97887.13;;;5.84;79.28
46722;BME280;32455;43.430;23.136;2023-03-16T09:22:40;97880.56;;;5.87;78.52
46722;BME280;32455;43.430;23.136;2023-03-16T09:25:26;97892.66;;;5.89;77.07
46722;BME280;32455;43.430;23.136;2023-03-16T09:28:11;97887.06;;;5.77;78.43
46722;BME280;32455;43.430;23.136;2023-03-16T09:30:57;97903.84;;;6.06;79.11
46722;BME280;32455;43.430;23.136;2023-03-16T09:33:42;97904.53;;;5.80;77.57
46722;BME280;32455;43.430;23.136;2023-03-16T09:36:28;97891.00;;;5.82;79.50
46722;BME280;32455;43.430;23.136;2023-03-16T09:39:13;97902.59;;;5.95;78.04
46722;BME280;32455;43.430;23.136;2023-03-16T09:45:00;97916.41;;;6.25;78.47
46722;BME280;32455;43.430;23.136;2023-03-16T09:47:51;97896.41;;;5.95;76.72
46722;BME280;32455;43.430;23.136;2023-03-16T09:50:41;97899.06;;;5.95;79.58
46722;BME280;32455;43.430;23.136;2023-03-16T09:53:30;97914.94;;;6.16;81.90
46722;BME280;32455;43.430;23.136;2023-03-16T09:56:26;97907.50;;;5.98;79.01
46722;BME280;32455;43.430;23.136;2023-03-16T09:59:15;97908.03;;;6.35;77.89
46722;BME280;32455;43.430;23.136;2023-03-16T10:05:13;97917.28;;;6.52;77.40
46722;BME280;32455;43.430;23.136;2023-03-16T10:18:01;97915.22;;;6.48;71.55
46722;BME280;32455;43.430;23.136;2023-03-16T10:20:51;97904.56;;;6.55;71.99
46722;BME280;32455;43.430;23.136;2023-03-16T10:23:38;97905.59;;;6.53;69.70
46722;BME280;32455;43.430;23.136;2023-03-16T10:26:30;97916.84;;;6.36;70.67
46722;BME280;32455;43.430;23.136;2023-03-16T10:29:17;97916.00;;;6.28;70.48
46722;BME280;32455;43.430;23.136;2023-03-16T10:32:13;97933.09;;;6.47;70.06
46722;BME280;32455;43.430;23.136;2023-03-16T10:35:02;97923.38;;;6.13;70.41
46722;BME280;32455;43.430;23.136;2023-03-16T10:37:50;97930.44;;;6.54;70.86
46722;BME280;32455;43.430;23.136;2023-03-16T10:40:37;97924.63;;;6.37;71.21
46722;BME280;32455;43.430;23.136;2023-03-16T10:43:23;97908.00;;;6.28;69.87
46722;BME280;32455;43.430;23.136;2023-03-16T10:46:09;97912.00;;;5.98;70.08
46722;BME280;32455;43.430;23.136;2023-03-16T10:48:58;97919.06;;;6.19;71.94
46722;BME280;32455;43.430;23.136;2023-03-16T10:51:43;97925.91;;;6.48;69.30
46722;BME280;32455;43.430;23.136;2023-03-16T10:54:37;97920.50;;;6.21;69.12
46722;BME280;32455;43.430;23.136;2023-03-16T11:00:20;97921.59;;;6.47;69.53
46722;BME280;32455;43.430;23.136;2023-03-16T11:03:24;97927.31;;;6.31;69.13
46722;BME280;32455;43.430;23.136;2023-03-16T11:06:25;97928.78;;;6.53;69.33
46722;BME280;32455;43.430;23.136;2023-03-16T11:09:21;97923.66;;;6.58;70.76
46722;BME280;32455;43.430;23.136;2023-03-16T11:12:21;97924.84;;;6.42;70.30
46722;BME280;32455;43.430;23.136;2023-03-16T11:15:12;97920.59;;;6.74;70.86
46722;BME280;32455;43.430;23.136;2023-03-16T11:17:59;97917.53;;;6.64;70.37
46722;BME280;32455;43.430;23.136;2023-03-16T11:20:45;97909.91;;;6.48;69.07
46722;BME280;32455;43.430;23.136;2023-03-16T11:23:32;97937.25;;;6.83;68.18
46722;BME280;32455;43.430;23.136;2023-03-16T11:26:39;97920.59;;;6.61;68.53
46722;BME280;32455;43.430;23.136;2023-03-16T11:32:49;97933.63;;;6.23;69.01
46722;BME280;32455;43.430;23.136;2023-03-16T11:48:23;97928.88;;;6.05;69.77
46722;BME280;32455;43.430;23.136;2023-03-16T11:58:09;97933.00;;;6.14;70.65
46722;BME280;32455;43.430;23.136;2023-03-16T12:07:27;97958.22;;;6.05;71.67
46722;BME280;32455;43.430;23.136;2023-03-16T12:10:27;97939.84;;;6.30;71.36
46722;BME280;32455;43.430;23.136;2023-03-16T12:13:52;97961.63;;;6.47;70.24
46722;BME280;32455;43.430;23.136;2023-03-16T12:19:48;97955.91;;;6.57;70.43
46722;BME280;32455;43.430;23.136;2023-03-16T12:22:42;97959.13;;;6.25;73.37
46722;BME280;32455;43.430;23.136;2023-03-16T12:25:33;97974.34;;;6.38;71.49
46722;BME280;32455;43.430;23.136;2023-03-16T12:28:25;97974.91;;;6.34;72.74
46722;BME280;32455;43.430;23.136;2023-03-16T12:31:40;97964.13;;;6.00;73.87
46722;BME280;32455;43.430;23.136;2023-03-16T12:34:35;97958.38;;;6.03;74.27
46722;BME280;32455;43.430;23.136;2023-03-16T12:37:35;97977.25;;;5.95;73.58
46722;BME280;32455;43.430;23.136;2023-03-16T12:50:11;97985.09;;;5.41;73.94
46722;BME280;32455;43.430;23.136;2023-03-16T12:52:59;97984.28;;;5.40;74.58
46722;BME280;32455;43.430;23.136;2023-03-16T12:55:44;97982.81;;;5.66;74.51
46722;BME280;32455;43.430;23.136;2023-03-16T12:58:30;97993.38;;;5.52;74.89
46722;BME280;32455;43.430;23.136;2023-03-16T13:01:19;97983.59;;;5.32;75.39
46722;BME280;32455;43.430;23.136;2023-03-16T13:04:20;97997.69;;;5.53;75.30
46722;BME280;32455;43.430;23.136;2023-03-16T13:07:14;97998.28;;;5.49;74.47
46722;BME280;32455;43.430;23.136;2023-03-16T13:10:07;97989.63;;;5.47;75.31
46722;BME280;32455;43.430;23.136;2023-03-16T13:13:10;98003.19;;;5.52;74.63
46722;BME280;32455;43.430;23.136;2023-03-16T13:16:06;97990.97;;;5.64;74.23
46722;BME280;32455;43.430;23.136;2023-03-16T13:18:53;98005.84;;;5.52;76.34
46722;BME280;32455;43.430;23.136;2023-03-16T13:21:40;98013.69;;;5.04;77.61
46722;BME280;32455;43.430;23.136;2023-03-16T13:24:36;97995.94;;;4.90;77.52
46722;BME280;32455;43.430;23.136;2023-03-16T13:27:34;98009.38;;;5.03;79.27
46722;BME280;32455;43.430;23.136;2023-03-16T13:30:23;98010.06;;;4.90;80.09
46722;BME280;32455;43.430;23.136;2023-03-16T13:33:22;98007.72;;;5.23;79.78
46722;BME280;32455;43.430;23.136;2023-03-16T13:36:10;98012.59;;;5.20;80.05
46722;BME280;32455;43.430;23.136;2023-03-16T13:39:06;98012.94;;;5.38;79.83
46722;BME280;32455;43.430;23.136;2023-03-16T13:42:02;98026.94;;;5.47;80.51
46722;BME280;32455;43.430;23.136;2023-03-16T13:44:52;98012.78;;;5.18;81.88
46722;BME280;32455;43.430;23.136;2023-03-16T13:47:42;98017.84;;;5.13;82.30
46722;BME280;32455;43.430;23.136;2023-03-16T13:50:33;98025.84;;;5.13;84.18
46722;BME280;32455;43.430;23.136;2023-03-16T13:53:29;98022.44;;;4.76;83.91
46722;BME280;32455;43.430;23.136;2023-03-16T13:56:22;98023.69;;;5.23;83.68
46722;BME280;32455;43.430;23.136;2023-03-16T13:59:11;98023.84;;;4.94;84.26
46722;BME280;32455;43.430;23.136;2023-03-16T14:01:59;98017.44;;;5.10;84.51
46722;BME280;32455;43.430;23.136;2023-03-16T14:04:45;98028.19;;;5.23;83.72
46722;BME280;32455;43.430;23.136;2023-03-16T14:07:36;98040.16;;;5.34;82.58
46722;BME280;32455;43.430;23.136;2023-03-16T14:10:25;98035.97;;;5.24;82.25
46722;BME280;32455;43.430;23.136;2023-03-16T14:16:16;98039.59;;;4.95;85.98
46722;BME280;32455;43.430;23.136;2023-03-16T14:19:05;98052.53;;;5.20;84.78
46722;BME280;32455;43.430;23.136;2023-03-16T14:21:52;98056.22;;;5.19;85.25
46722;BME280;32455;43.430;23.136;2023-03-16T14:24:38;98045.72;;;5.39;84.32
46722;BME280;32455;43.430;23.136;2023-03-16T14:27:27;98064.47;;;5.24;83.28
46722;BME280;32455;43.430;23.136;2023-03-16T14:30:15;98071.94;;;5.14;83.67
46722;BME280;32455;43.430;23.136;2023-03-16T14:33:05;98058.00;;;5.12;82.55
46722;BME280;32455;43.430;23.136;2023-03-16T14:35:57;98066.88;;;4.97;83.74
46722;BME280;32455;43.430;23.136;2023-03-16T14:38:47;98069.94;;;4.80;83.55
46722;BME280;32455;43.430;23.136;2023-03-16T14:41:32;98079.69;;;5.09;86.11
46722;BME280;32455;43.430;23.136;2023-03-16T14:44:26;98071.94;;;5.14;85.48
46722;BME280;32455;43.430;23.136;2023-03-16T14:47:21;98079.97;;;4.77;90.51
46722;BME280;32455;43.430;23.136;2023-03-16T14:50:14;98074.25;;;4.59;92.44
46722;BME280;32455;43.430;23.136;2023-03-16T14:53:01;98062.59;;;4.60;90.52
46722;BME280;32455;43.430;23.136;2023-03-16T14:55:47;98058.81;;;4.91;89.36
46722;BME280;32455;43.430;23.136;2023-03-16T14:58:33;98081.06;;;5.05;89.88
46722;BME280;32455;43.430;23.136;2023-03-16T15:01:20;98085.81;;;5.09;91.44
46722;BME280;32455;43.430;23.136;2023-03-16T15:04:05;98056.63;;;4.80;90.31
46722;BME280;32455;43.430;23.136;2023-03-16T15:06:52;98078.19;;;4.48;88.82
46722;BME280;32455;43.430;23.136;2023-03-16T15:09:40;98093.75;;;4.81;90.44
46722;BME280;32455;43.430;23.136;2023-03-16T15:12:28;98096.09;;;5.12;89.11
46722;BME280;32455;43.430;23.136;2023-03-16T15:15:17;98109.41;;;5.12;88.99
46722;BME280;32455;43.430;23.136;2023-03-16T15:18:04;98117.16;;;4.71;89.00
46722;BME280;32455;43.430;23.136;2023-03-16T15:20:49;98114.22;;;4.66;88.11
46722;BME280;32455;43.430;23.136;2023-03-16T15:23:38;98111.50;;;4.95;84.72
46722;BME280;32455;43.430;23.136;2023-03-16T15:26:26;98117.63;;;4.96;84.84
46722;BME280;32455;43.430;23.136;2023-03-16T15:29:11;98117.19;;;4.92;83.80
46722;BME280;32455;43.430;23.136;2023-03-16T15:31:57;98140.75;;;4.74;83.04
46722;BME280;32455;43.430;23.136;2023-03-16T15:34:43;98139.47;;;4.70;85.63
46722;BME280;32455;43.430;23.136;2023-03-16T15:37:30;98142.31;;;4.68;85.17
46722;BME280;32455;43.430;23.136;2023-03-16T15:43:08;98162.59;;;4.69;86.20
46722;BME280;32455;43.430;23.136;2023-03-16T15:45:54;98156.66;;;4.38;87.50
46722;BME280;32455;43.430;23.136;2023-03-16T15:48:40;98162.03;;;4.15;90.74
46722;BME280;32455;43.430;23.136;2023-03-16T15:51:26;98156.53;;;4.01;92.20
46722;BME280;32455;43.430;23.136;2023-03-16T15:54:14;98151.53;;;3.84;93.90
46722;BME280;32455;43.430;23.136;2023-03-16T15:57:00;98159.19;;;4.01;92.92
46722;BME280;32455;43.430;23.136;2023-03-16T15:59:45;98176.00;;;4.32;93.52
46722;BME280;32455;43.430;23.136;2023-03-16T16:02:31;98186.28;;;4.20;92.65